Time;durP1;ratioP1;P1;durP2;ratioP2;P2;SDS_P1;SDS_P2;PMS_P1;PMS_P2;Temp;Humidity;BMP_temperature;BMP_pressure;BME280_temperature;BME280_humidity;BME280_pressure;Samples;Min_cycle;Max_cycle;Signal;HPM_P1;HPM_P2
2021/12/25 14:36:57;;;;;;;7.05;4.35;;;;;;;-3.44;59.90;98863.59;1788364;78;23204;-54
2021/12/25 14:39:23;;;;;;;8.00;5.08;;;;;;;-3.44;60.52;98862.30;1734887;81;21189;-54
2021/12/25 14:41:51;;;;;;;13.83;7.77;;;;;;;-3.29;60.42;98861.02;1730991;81;21498;-55
2021/12/25 14:44:24;;;;;;;11.28;6.70;;;;;;;-3.15;60.83;98865.72;1723606;82;21628;-54
2021/12/25 14:47:17;;;;;;;13.98;7.03;;;;;;;-3.02;60.72;98861.88;1715112;82;21612;-55
2021/12/25 14:49:47;;;;;;;12.45;7.55;;;;;;;-2.89;61.49;98859.72;1720698;81;21613;-54
2021/12/25 14:52:14;;;;;;;13.65;7.30;;;;;;;-2.78;61.74;98862.28;1718714;82;21523;-53
2021/12/25 14:54:44;;;;;;;12.23;7.90;;;;;;;-2.66;61.82;98863.97;1717517;82;21563;-53
2021/12/25 14:57:28;;;;;;;13.60;8.08;;;;;;;-2.58;61.96;98875.97;1717541;82;21573;-54
2021/12/25 14:59:56;;;;;;;13.53;7.85;;;;;;;-2.52;61.76;98875.09;1716470;82;21722;-57
2021/12/25 15:02:25;;;;;;;10.03;5.97;;;;;;;-2.51;61.56;98884.52;1716617;81;21523;-57
2021/12/25 15:04:53;;;;;;;11.25;6.90;;;;;;;-2.51;61.30;98884.52;1713672;81;21550;-55
2021/12/25 15:07:20;;;;;;;10.55;6.30;;;;;;;-2.56;60.34;98893.98;1714705;81;21845;-56
2021/12/25 15:09:49;;;;;;;9.53;6.40;;;;;;;-2.60;60.18;98895.71;1715084;82;21084;-53
2021/12/25 15:12:24;;;;;;;8.75;5.83;;;;;;;-2.61;60.42;98891.84;1714404;82;21402;-53
2021/12/25 15:15:07;;;;;;;11.22;5.97;;;;;;;-2.56;60.44;98903.84;1712374;81;21576;-53
2021/12/25 15:17:33;;;;;;;8.20;5.10;;;;;;;-2.58;60.37;98907.27;1719494;82;21561;-54
2021/12/25 15:20:10;;;;;;;11.18;5.12;;;;;;;-2.61;59.17;98904.72;1731234;81;21795;-54
2021/12/25 15:22:38;;;;;;;13.50;7.40;;;;;;;-2.64;58.64;98908.12;1699322;81;21608;-53
2021/12/25 15:25:21;;;;;;;10.18;6.17;;;;;;;-2.68;57.93;98909.44;1704997;81;21578;-55
2021/12/25 15:27:51;;;;;;;10.60;5.85;;;;;;;-2.68;58.68;98922.30;1710386;83;20973;-53
2021/12/25 15:30:27;;;;;;;9.45;5.60;;;;;;;-2.74;58.13;98919.31;1704874;83;21533;-53
2021/12/25 15:33:00;;;;;;;10.43;5.83;;;;;;;-2.76;58.43;98927.46;1724442;81;22092;-53
2021/12/25 15:35:30;;;;;;;9.78;5.47;;;;;;;-2.79;57.95;98939.03;1722345;81;21426;-54
2021/12/25 15:37:57;;;;;;;9.50;5.60;;;;;;;-2.80;57.68;98932.19;1730353;80;21581;-53
2021/12/25 15:40:28;;;;;;;9.43;5.55;;;;;;;-2.79;57.63;98943.77;1730482;80;21525;-53
2021/12/25 15:42:55;;;;;;;10.98;6.40;;;;;;;-2.81;55.10;98950.60;1727352;80;21596;-54
2021/12/25 15:45:22;;;;;;;12.82;8.20;;;;;;;-2.88;55.51;98945.05;1736894;80;21798;-54
2021/12/25 15:47:51;;;;;;;18.15;10.65;;;;;;;-3.01;53.85;98942.90;1726283;82;21648;-53
2021/12/25 15:50:22;;;;;;;18.05;11.10;;;;;;;-3.09;53.92;98942.02;1713810;80;21068;-53
2021/12/25 15:52:49;;;;;;;19.50;9.58;;;;;;;-3.19;54.59;98943.72;1734307;80;21520;-53
2021/12/25 15:55:16;;;;;;;15.65;9.33;;;;;;;-3.25;55.51;98950.15;1724614;80;21442;-52
2021/12/25 15:57:49;;;;;;;13.38;8.13;;;;;;;-3.34;55.81;98959.98;1728565;80;21777;-52
2021/12/25 16:00:13;;;;;;;16.67;8.93;;;;;;;-3.41;56.84;98964.70;1727082;80;21454;-53
2021/12/25 16:02:40;;;;;;;17.42;9.08;;;;;;;-3.42;57.54;98969.40;1723179;82;20942;-53
2021/12/25 16:05:07;;;;;;;18.17;9.35;;;;;;;-3.40;57.78;98968.12;1724706;82;21478;-52
2021/12/25 16:07:34;;;;;;;16.48;8.73;;;;;;;-3.42;57.86;98972.41;1715254;80;21603;-53
2021/12/25 16:10:02;;;;;;;11.60;6.95;;;;;;;-3.46;58.21;98975.39;1730732;80;21821;-52
2021/12/25 16:12:29;;;;;;;;;;;;;;;-3.49;58.06;98980.95;1730506;80;21517;-53
2021/12/25 16:14:56;;;;;;;8.43;5.60;;;;;;;-3.54;58.02;98984.80;1720597;80;20421;-55
2021/12/25 16:17:22;;;;;;;9.20;5.50;;;;;;;-3.51;58.69;98987.36;1695965;82;21551;-52
2021/12/25 16:19:49;;;;;;;6.90;3.95;;;;;;;-3.46;59.25;98983.53;1645359;84;21507;-53
2021/12/25 16:22:16;;;;;;;6.45;3.42;;;;;;;-3.41;59.07;98994.67;1722734;80;21797;-53
2021/12/25 16:24:42;;;;;;;5.30;3.50;;;;;;;-3.41;58.86;99002.37;1726728;82;21520;-53
2021/12/25 16:27:09;;;;;;;9.07;3.90;;;;;;;-3.40;58.88;99004.11;1735385;80;21569;-56
2021/12/25 16:29:36;;;;;;;6.03;3.50;;;;;;;-3.41;58.96;99001.09;1672412;83;21589;-53
2021/12/25 16:32:04;;;;;;;4.08;3.15;;;;;;;-3.35;59.31;99006.28;1723572;80;21438;-53
2021/12/25 16:34:32;;;;;;;5.70;3.67;;;;;;;-3.33;59.30;99001.99;1732003;80;21780;-54
2021/12/25 16:37:03;;;;;;;6.05;3.67;;;;;;;-3.29;58.99;99011.86;1743630;80;21494;-53
2021/12/25 16:39:28;;;;;;;4.62;3.15;;;;;;;-3.31;59.11;99008.00;1752210;79;21045;-52
2021/12/25 16:41:55;;;;;;;6.67;3.50;;;;;;;-3.37;58.92;99002.81;1761323;80;21084;-59
2021/12/25 16:44:22;;;;;;;5.15;3.58;;;;;;;-3.37;59.51;98998.95;1752917;80;21489;-52
2021/12/25 16:46:50;;;;;;;6.03;4.47;;;;;;;-3.36;59.75;99001.97;1759105;80;21540;-53
2021/12/25 16:49:19;;;;;;;6.00;3.60;;;;;;;-3.36;59.80;99004.55;1708026;83;21414;-54
2021/12/25 16:51:45;;;;;;;7.17;3.65;;;;;;;-3.41;59.86;99003.66;1696286;83;21636;-53
2021/12/25 16:54:12;;;;;;;7.35;3.72;;;;;;;-3.43;59.96;99006.22;1713475;82;21544;-53
2021/12/25 16:56:47;;;;;;;5.50;3.95;;;;;;;-3.48;60.17;99014.37;1693444;83;22519;-52
2021/12/25 16:59:13;;;;;;;5.30;3.55;;;;;;;-3.54;60.08;99014.35;1730044;81;21636;-54
2021/12/25 17:01:40;;;;;;;4.97;3.27;;;;;;;-3.54;60.60;99027.20;1694219;83;21574;-53
2021/12/25 17:04:06;;;;;;;6.60;4.63;;;;;;;-3.55;60.74;99017.77;1692677;83;21600;-54
2021/12/25 17:06:33;;;;;;;5.85;3.87;;;;;;;-3.55;60.65;99024.19;1691145;83;21460;-54
2021/12/25 17:09:00;;;;;;;7.15;4.00;;;;;;;-3.58;60.61;99030.19;1680567;82;21547;-55
2021/12/25 17:11:28;;;;;;;5.75;4.08;;;;;;;-3.57;61.04;99029.75;1701383;82;21857;-55
2021/12/25 17:13:56;;;;;;;5.80;4.35;;;;;;;-3.61;60.99;99027.59;1705066;82;21414;-55
2021/12/25 17:16:24;;;;;;;5.85;3.67;;;;;;;-3.62;61.14;99034.00;1721741;80;21535;-53
2021/12/25 17:18:51;;;;;;;;;;;;;;;-3.66;61.23;99042.12;1730659;80;20951;-54
2021/12/25 17:21:18;;;;;;;6.20;4.33;;;;;;;-3.70;61.33;99040.39;1719389;81;20432;-52
2021/12/25 17:23:44;;;;;;;6.05;4.35;;;;;;;-3.68;61.58;99028.41;1729722;81;22007;-52
2021/12/25 17:26:11;;;;;;;7.67;4.78;;;;;;;-3.66;61.60;99036.98;1720832;81;21566;-53
2021/12/25 17:28:39;;;;;;;7.20;4.70;;;;;;;-3.67;61.64;99032.70;1700924;83;21557;-51
2021/12/25 17:31:05;;;;;;;7.05;4.40;;;;;;;-3.74;61.50;99038.23;1700653;82;21563;-51
2021/12/25 17:33:33;;;;;;;10.40;5.95;;;;;;;-3.77;61.54;99041.20;1696534;82;21057;-53
2021/12/25 17:36:00;;;;;;;7.75;5.45;;;;;;;-3.79;61.33;99040.34;1693637;83;21746;-53
2021/12/25 17:38:32;;;;;;;11.88;5.90;;;;;;;-3.82;61.74;99041.63;1688445;83;21484;-53
2021/12/25 17:41:03;;;;;;;9.33;5.45;;;;;;;-3.82;61.81;99050.19;1696027;82;21586;-53
2021/12/25 17:43:31;;;;;;;8.20;4.70;;;;;;;-3.76;62.09;99062.20;1686755;82;21516;-54
2021/12/25 17:46:00;;;;;;;16.30;10.32;;;;;;;-3.72;62.15;99066.07;1690391;82;21005;-54
2021/12/25 17:48:27;;;;;;;17.80;10.45;;;;;;;-3.73;61.36;99068.22;1729945;80;21801;-53
2021/12/25 17:50:55;;;;;;;13.53;7.45;;;;;;;-3.76;61.17;99066.06;1731518;80;26133;-52
2021/12/25 17:53:22;;;;;;;12.28;6.80;;;;;;;-3.83;61.11;99067.72;1741493;80;21495;-55
2021/12/25 17:55:50;;;;;;;10.60;7.53;;;;;;;-3.87;60.96;99084.41;1722407;82;21672;-51
2021/12/25 17:58:17;;;;;;;;;;;;;;;-3.92;61.18;99089.09;1724444;80;21429;-52
2021/12/25 18:00:47;;;;;;;12.07;6.80;;;;;;;-3.97;61.01;99086.91;1728186;80;20437;-53
2021/12/25 18:03:14;;;;;;;8.88;6.08;;;;;;;-3.98;61.39;99089.46;1733647;81;21570;-52
2021/12/25 18:05:42;;;;;;;36.73;20.10;;;;;;;-4.03;61.64;99088.16;1693312;82;21572;-51
2021/12/25 18:08:10;;;;;;;13.10;8.15;;;;;;;-4.04;61.61;99100.55;1727580;80;21490;-52
2021/12/25 18:10:36;;;;;;;9.63;6.15;;;;;;;-4.10;61.65;99104.37;1720826;80;21654;-51
2021/12/25 18:13:04;;;;;;;9.18;6.05;;;;;;;-4.17;61.86;99105.16;1731030;80;21702;-51
2021/12/25 18:15:33;;;;;;;11.97;8.20;;;;;;;-4.24;62.13;99097.82;1696171;82;21509;-51
2021/12/25 18:18:00;;;;;;;10.50;6.95;;;;;;;-4.30;62.26;99099.06;1729629;80;21514;-50
2021/12/25 18:20:30;;;;;;;11.45;6.50;;;;;;;-4.34;62.48;99107.59;1675963;85;21552;-51
2021/12/25 18:22:58;;;;;;;12.47;7.10;;;;;;;-4.33;62.63;99094.77;1730490;80;21517;-50
2021/12/25 18:25:25;;;;;;;9.05;6.60;;;;;;;-4.37;62.78;99098.17;1729600;80;21838;-51
2021/12/25 18:27:52;;;;;;;16.93;8.88;;;;;;;-4.38;62.91;99091.73;1731764;80;21572;-52
2021/12/25 18:30:20;;;;;;;16.35;9.45;;;;;;;-4.40;63.07;99092.15;1728325;80;21598;-52
2021/12/25 18:32:47;;;;;;;16.30;9.93;;;;;;;-4.45;63.25;99095.94;1733330;82;21549;-52
2021/12/25 18:35:14;;;;;;;20.70;9.90;;;;;;;-4.50;63.52;99093.78;1729769;80;21411;-51
2021/12/25 18:37:41;;;;;;;19.27;9.10;;;;;;;-4.54;63.84;99094.17;1726728;80;21135;-51
2021/12/25 18:40:12;;;;;;;14.90;7.85;;;;;;;-4.58;64.00;99094.11;1730276;82;21498;-54
2021/12/25 18:42:39;;;;;;;12.93;7.35;;;;;;;-4.62;64.13;99094.94;1729957;80;21541;-53
2021/12/25 18:45:07;;;;;;;11.80;6.30;;;;;;;-4.71;64.51;99096.98;1734848;80;21586;-51
2021/12/25 18:47:35;;;;;;;9.70;5.62;;;;;;;-4.76;64.81;99103.36;1727523;80;21438;-54
2021/12/25 18:50:04;;;;;;;8.60;5.37;;;;;;;-4.79;64.96;99111.44;1723061;80;21744;-53
2021/12/25 18:52:32;;;;;;;6.30;4.28;;;;;;;-4.85;65.17;99112.23;1725523;82;21545;-50
2021/12/25 18:54:59;;;;;;;8.83;4.58;;;;;;;-4.87;65.39;99115.20;1734097;80;21558;-52
2021/12/25 18:57:25;;;;;;;7.60;4.45;;;;;;;-4.79;65.47;99120.42;1738415;80;21495;-53
2021/12/25 18:59:52;;;;;;;6.45;4.00;;;;;;;-4.73;65.05;99120.47;1736799;80;21607;-54
2021/12/25 19:02:20;;;;;;;9.38;4.50;;;;;;;-4.74;64.90;99111.92;1729569;79;21605;-55
2021/12/25 19:04:50;;;;;;;6.42;4.40;;;;;;;-4.77;64.75;99124.70;1733004;80;20950;-52
2021/12/25 19:07:16;;;;;;;10.63;5.22;;;;;;;-4.77;64.49;99131.13;1733163;80;21499;-55
2021/12/25 19:09:45;;;;;;;8.68;5.30;;;;;;;-4.78;64.43;99133.70;1732487;80;21466;-53
2021/12/25 19:12:13;;;;;;;7.37;4.10;;;;;;;-4.77;64.44;99138.81;1734296;80;21479;-52
2021/12/25 19:14:42;;;;;;;5.00;3.75;;;;;;;-4.80;64.32;99137.92;1732728;80;21799;-55
2021/12/25 19:17:12;;;;;;;5.70;3.52;;;;;;;-4.82;64.40;99148.19;1720701;80;21594;-54
2021/12/25 19:19:39;;;;;;;6.55;3.90;;;;;;;-4.86;64.25;99140.42;1731794;80;21065;-54
2021/12/25 19:22:06;;;;;;;5.23;3.50;;;;;;;-4.84;64.55;99145.14;1733338;80;20953;-52
2021/12/25 19:24:33;;;;;;;5.92;3.85;;;;;;;-4.82;64.65;99144.34;1725848;80;21644;-53
2021/12/25 19:27:00;;;;;;;8.23;4.15;;;;;;;-4.80;64.46;99135.35;1717472;80;22107;-53
2021/12/25 19:29:27;;;;;;;6.15;3.62;;;;;;;-4.82;64.14;99136.65;1731395;80;20989;-54
2021/12/25 19:31:55;;;;;;;7.25;3.87;;;;;;;-4.84;64.34;99142.19;1702801;83;21605;-51
2021/12/25 19:34:21;;;;;;;6.35;4.17;;;;;;;-4.80;64.12;99151.62;1688643;83;21478;-53
2021/12/25 19:36:48;;;;;;;8.40;3.92;;;;;;;-4.80;64.32;99154.59;1731589;80;21609;-52
2021/12/25 19:39:15;;;;;;;7.45;3.70;;;;;;;-4.78;64.24;99156.34;1759622;80;22174;-51
2021/12/25 19:41:44;;;;;;;8.25;4.47;;;;;;;-4.74;64.01;99163.66;1740344;80;21547;-51
2021/12/25 19:44:11;;;;;;;6.90;4.12;;;;;;;-4.80;63.74;99156.76;1754043;80;21490;-52
2021/12/25 19:46:38;;;;;;;6.37;3.90;;;;;;;-4.79;63.79;99152.48;1751130;79;21533;-54
2021/12/25 19:49:06;;;;;;;6.50;3.60;;;;;;;-4.81;63.76;99149.89;1741483;79;25897;-52
2021/12/25 19:51:34;;;;;;;6.12;3.98;;;;;;;-4.82;63.59;99152.03;1745463;79;21543;-52
2021/12/25 19:54:01;;;;;;;4.72;3.77;;;;;;;-4.85;63.79;99149.86;1750240;80;21570;-53
2021/12/25 19:56:28;;;;;;;7.33;3.90;;;;;;;-4.87;63.98;99147.27;1746618;80;21526;-51
2021/12/25 19:58:55;;;;;;;6.12;3.92;;;;;;;-4.89;64.07;99146.39;1752142;80;21592;-55
2021/12/25 20:01:23;;;;;;;7.28;4.15;;;;;;;-4.87;63.96;99157.95;1742592;80;21561;-57
2021/12/25 20:03:51;;;;;;;10.20;4.47;;;;;;;-4.96;63.98;99161.27;1740438;79;21722;-51
2021/12/25 20:06:19;;;;;;;5.55;3.60;;;;;;;-4.99;64.21;99168.51;1746005;79;21426;-53
2021/12/25 20:08:49;;;;;;;7.35;4.22;;;;;;;-5.00;64.33;99171.90;1744573;80;25769;-52
2021/12/25 20:11:16;;;;;;;7.22;4.17;;;;;;;-5.05;64.50;99170.13;1749481;80;21431;-51
2021/12/25 20:13:45;;;;;;;6.62;3.70;;;;;;;-5.12;64.72;99165.36;1746654;80;21656;-51
2021/12/25 20:16:14;;;;;;;5.50;3.62;;;;;;;-5.16;64.93;99168.70;1753842;80;21538;-51
2021/12/25 20:18:41;;;;;;;5.87;3.85;;;;;;;-5.14;65.06;99173.02;1753200;80;21553;-50
2021/12/25 20:21:10;;;;;;;4.80;3.40;;;;;;;-5.15;64.89;99171.28;1757134;80;21581;-51
2021/12/25 20:23:37;;;;;;;5.47;3.60;;;;;;;-5.18;64.76;99168.70;1746309;80;21450;-53
2021/12/25 20:26:05;;;;;;;4.50;3.22;;;;;;;-5.21;64.77;99172.92;1755228;80;21427;-51
2021/12/25 20:28:37;;;;;;;6.15;4.10;;;;;;;-5.19;64.79;99176.37;1748148;80;21755;-51
2021/12/25 20:31:05;;;;;;;8.00;4.30;;;;;;;-5.22;64.95;99165.63;1751669;80;21442;-51
2021/12/25 20:33:32;;;;;;;5.62;3.92;;;;;;;-5.18;65.06;99171.66;1758699;80;21545;-52
2021/12/25 20:35:59;;;;;;;5.03;3.33;;;;;;;-5.14;65.08;99182.39;1753003;80;21664;-52
2021/12/25 20:38:26;;;;;;;6.92;4.28;;;;;;;-5.14;65.09;99182.00;1679860;83;27157;-54
2021/12/25 20:40:52;;;;;;;4.92;3.60;;;;;;;-5.19;65.18;99183.63;1709490;82;21490;-52
2021/12/25 20:43:24;;;;;;;11.93;4.12;;;;;;;-5.14;65.25;99178.15;1729531;82;21554;-53
2021/12/25 20:45:48;;;;;;;5.58;3.50;;;;;;;-5.07;65.24;99177.79;1720422;82;21463;-53
2021/12/25 20:48:22;;;;;;;6.70;4.42;;;;;;;-5.03;65.03;99179.55;1720897;82;21424;-52
